Time;durP1;ratioP1;P1;durP2;ratioP2;P2;SDS_P1;SDS_P2;PMS_P1;PMS_P2;Temp;Humidity;BMP_temperature;BMP_pressure;BME280_temperature;BME280_humidity;BME280_pressure;Samples;Min_cycle;Max_cycle;Signal;HPM_P1;HPM_P2
2022/10/15 00:00:27;;;;;;;67.88;38.08;;;12.00;99.90;;;;;;5076941;28;20084;-81
2022/10/15 00:02:53;;;;;;;65.22;35.30;;;12.00;99.90;;;;;;5076893;28;20127;-84
2022/10/15 00:05:19;;;;;;;90.13;38.72;;;12.00;99.90;;;;;;5076436;28;20048;-85
2022/10/15 00:07:44;;;;;;;50.17;31.30;;;11.90;99.90;;;;;;5076600;28;20054;-81
2022/10/15 00:10:10;;;;;;;93.20;41.97;;;11.90;99.90;;;;;;5075813;28;20279;-83
2022/10/15 00:12:36;;;;;;;63.33;34.67;;;12.00;99.90;;;;;;5076727;28;20041;-82
2022/10/15 00:15:02;;;;;;;109.20;42.20;;;11.90;99.90;;;;;;5076436;28;20080;-83
2022/10/15 00:17:27;;;;;;;66.32;33.33;;;12.20;99.90;;;;;;5059081;28;20040;-81
2022/10/15 00:19:53;;;;;;;118.80;46.75;;;12.00;99.90;;;;;;5076519;28;20044;-82
2022/10/15 00:22:18;;;;;;;92.82;41.25;;;11.90;99.90;;;;;;5059067;28;20381;-83
2022/10/15 00:24:44;;;;;;;152.30;43.67;;;11.90;99.90;;;;;;5075550;28;20072;-82
2022/10/15 00:27:09;;;;;;;57.53;35.35;;;12.00;99.90;;;;;;5075481;28;20472;-81
2022/10/15 00:29:35;;;;;;;150.43;46.17;;;12.00;99.90;;;;;;5058744;28;20045;-83
2022/10/15 00:32:01;;;;;;;70.95;35.20;;;12.00;99.90;;;;;;5076336;28;20052;-83
2022/10/15 00:34:26;;;;;;;92.70;43.22;;;11.70;99.90;;;;;;5058470;28;20045;-83
2022/10/15 00:36:52;;;;;;;80.70;39.92;;;11.90;99.90;;;;;;5075440;28;20048;-80
2022/10/15 00:39:17;;;;;;;100.15;39.67;;;11.70;99.90;;;;;;5076212;28;20044;-82
2022/10/15 00:41:44;;;;;;;65.10;35.35;;;12.30;99.90;;;;;;5075342;28;20114;-83
2022/10/15 00:44:25;;;;;;;97.05;40.78;;;12.20;99.90;;;;;;5074692;28;20044;-83
2022/10/15 00:46:59;;;;;;;77.03;36.42;;;11.90;99.90;;;;;;5075404;28;20049;-84
2022/10/15 00:49:27;;;;;;;73.70;36.50;;;11.90;99.90;;;;;;5076056;28;20388;-82
2022/10/15 00:52:16;;;;;;;101.03;37.85;;;12.00;99.90;;;;;;5075880;28;20056;-81
2022/10/15 00:54:48;;;;;;;88.07;37.90;;;12.00;99.90;;;;;;5075177;28;20037;-83
2022/10/15 00:57:14;;;;;;;106.85;36.67;;;11.60;99.90;;;;;;5074892;28;20052;-82
2022/10/15 00:59:48;;;;;;;236.02;52.40;;;11.90;99.90;;;;;;5075840;28;20044;-85
2022/10/15 01:02:16;;;;;;;89.88;40.67;;;11.90;99.90;;;;;;5074862;28;20079;-85
2022/10/15 01:04:41;;;;;;;92.18;39.22;;;11.90;99.90;;;;;;5075841;28;20132;-84
2022/10/15 01:07:07;;;;;;;92.68;42.25;;;12.50;99.90;;;;;;5075726;28;20076;-81
2022/10/15 01:09:33;;;;;;;113.45;46.13;;;11.90;99.90;;;;;;5075623;28;20047;-82
2022/10/15 01:11:59;;;;;;;93.63;42.85;;;11.90;99.90;;;;;;5074533;28;20130;-83
2022/10/15 01:14:57;;;;;;;79.75;41.92;;;12.10;99.90;;;;;;5075689;28;20127;-82
2022/10/15 01:17:39;;;;;;;72.60;36.70;;;12.00;99.90;;;;;;5052140;28;20055;-81
2022/10/15 01:20:21;;;;;;;67.18;35.13;;;12.00;99.90;;;;;;5074713;28;20135;-82
2022/10/15 01:23:24;;;;;;;89.30;37.70;;;12.00;99.90;;;;;;5075390;28;20091;-82
2022/10/15 01:26:08;;;;;;;125.10;42.10;;;11.90;99.90;;;;;;5057343;28;20143;-81
2022/10/15 01:28:37;;;;;;;68.13;33.80;;;11.90;99.90;;;;;;5074100;28;20131;-82
2022/10/15 01:31:16;;;;;;;74.18;35.05;;;11.90;99.90;;;;;;5074660;28;20066;-82
2022/10/15 01:33:54;;;;;;;92.75;34.80;;;11.90;99.90;;;;;;5075048;28;20040;-80
2022/10/15 01:36:33;;;;;;;77.75;42.15;;;11.90;99.90;;;;;;5058589;28;20151;-82
2022/10/15 01:39:10;;;;;;;86.65;36.13;;;11.90;99.90;;;;;;5073826;28;20045;-81
2022/10/15 01:41:56;;;;;;;69.05;31.55;;;11.90;99.90;;;;;;5073791;28;20040;-81
2022/10/15 01:44:44;;;;;;;91.20;37.47;;;11.90;99.90;;;;;;5073650;28;20088;-81
2022/10/15 01:47:35;;;;;;;74.15;31.85;;;11.80;99.90;;;;;;5074480;28;20569;-83
2022/10/15 01:50:04;;;;;;;81.22;33.78;;;11.80;99.90;;;;;;5066224;28;20057;-84
2022/10/15 01:52:33;;;;;;;74.38;36.83;;;11.80;99.90;;;;;;5074525;28;20492;-82
2022/10/15 01:55:01;;;;;;;97.28;34.00;;;11.90;99.90;;;;;;5073482;28;20052;-82
2022/10/15 01:57:29;;;;;;;82.13;35.78;;;11.80;99.90;;;;;;5073248;28;20048;-85
2022/10/15 01:59:55;;;;;;;59.60;32.20;;;11.70;99.90;;;;;;5074600;28;20073;-82
2022/10/15 02:02:21;;;;;;;68.68;30.80;;;11.50;99.90;;;;;;5057530;28;20082;-84
2022/10/15 02:04:46;;;;;;;86.45;40.05;;;11.70;99.90;;;;;;5073536;28;20487;-80
2022/10/15 02:07:38;;;;;;;69.43;35.97;;;11.70;99.90;;;;;;5074146;28;20054;-82
2022/10/15 02:10:17;;;;;;;62.08;29.48;;;11.70;99.90;;;;;;5069956;28;20079;-82
2022/10/15 02:12:55;;;;;;;64.88;32.75;;;11.70;99.90;;;;;;5074692;28;20445;-83
2022/10/15 02:15:47;;;;;;;70.53;32.47;;;11.70;99.90;;;;;;5074226;28;20127;-83
2022/10/15 02:18:22;;;;;;;81.13;34.17;;;11.70;99.90;;;;;;5056396;28;20527;-83
2022/10/15 02:21:04;;;;;;;67.47;31.92;;;11.70;99.90;;;;;;5073232;28;20396;-84
2022/10/15 02:23:53;;;;;;;75.32;36.55;;;11.50;99.90;;;;;;5074128;28;20095;-84
2022/10/15 02:26:20;;;;;;;58.20;28.30;;;11.50;99.90;;;;;;5073413;28;20056;-83
2022/10/15 02:28:51;;;;;;;70.43;31.50;;;11.60;99.90;;;;;;5056432;28;20415;-83
2022/10/15 02:31:20;;;;;;;68.50;32.72;;;11.60;99.90;;;;;;5073354;28;20044;-81
2022/10/15 02:33:48;;;;;;;62.95;32.78;;;11.60;99.90;;;;;;5073711;28;20579;-84
2022/10/15 02:36:15;;;;;;;86.78;34.53;;;11.60;99.90;;;;;;5073352;28;20396;-81
2022/10/15 02:38:43;;;;;;;75.10;30.90;;;11.60;99.90;;;;;;5073129;28;20454;-83
2022/10/15 02:41:09;;;;;;;73.13;32.92;;;11.60;99.90;;;;;;5072902;28;20775;-81
2022/10/15 02:43:36;;;;;;;68.30;33.83;;;11.60;99.90;;;;;;5073911;28;20071;-83
2022/10/15 02:46:02;;;;;;;;;;;11.60;99.90;;;;;;5072722;28;20135;-81
2022/10/15 02:48:27;;;;;;;84.35;33.65;;;11.50;99.90;;;;;;5073055;28;20340;-82
2022/10/15 02:50:53;;;;;;;64.28;31.23;;;11.50;99.90;;;;;;5073245;28;20048;-84
2022/10/15 02:53:18;;;;;;;70.85;31.17;;;11.50;99.90;;;;;;5072746;28;20082;-81
2022/10/15 02:55:45;;;;;;;85.63;36.30;;;11.70;99.90;;;;;;5073767;28;20048;-81
2022/10/15 02:58:11;;;;;;;65.70;32.72;;;11.50;99.90;;;;;;5073780;28;20041;-81
2022/10/15 03:00:37;;;;;;;70.55;35.20;;;11.50;99.90;;;;;;5072577;28;20154;-81
2022/10/15 03:03:03;;;;;;;72.30;34.90;;;11.50;99.90;;;;;;5074029;28;20101;-84
2022/10/15 03:05:28;;;;;;;66.40;30.17;;;11.50;99.90;;;;;;5072933;28;20043;-82
2022/10/15 03:07:54;;;;;;;74.13;33.70;;;11.70;99.90;;;;;;5072830;28;20506;-81
2022/10/15 03:10:19;;;;;;;70.13;35.53;;;11.50;99.90;;;;;;5074679;28;20040;-83
2022/10/15 03:12:45;;;;;;;61.97;32.85;;;11.50;99.90;;;;;;5073282;28;20081;-82
2022/10/15 03:15:10;;;;;;;75.55;35.25;;;11.50;99.90;;;;;;5072382;28;20048;-85
2022/10/15 03:17:36;;;;;;;63.10;32.25;;;11.70;99.90;;;;;;5072040;28;20135;-82
2022/10/15 03:20:02;;;;;;;87.03;32.90;;;11.50;99.90;;;;;;5073784;28;20045;-84
2022/10/15 03:22:27;;;;;;;68.85;33.72;;;11.50;99.90;;;;;;5072590;28;20435;-84
2022/10/15 03:24:53;;;;;;;69.20;34.25;;;11.60;99.90;;;;;;5072614;28;20147;-82
2022/10/15 03:27:18;;;;;;;68.05;32.47;;;11.50;99.90;;;;;;5073450;28;20154;-82
2022/10/15 03:29:44;;;;;;;62.47;37.42;;;11.60;99.90;;;;;;5072546;28;20041;-83
2022/10/15 03:32:09;;;;;;;70.95;34.30;;;11.50;99.90;;;;;;5073369;28;20044;-83
2022/10/15 03:34:35;;;;;;;67.75;30.35;;;11.50;99.90;;;;;;5073351;28;20495;-81
2022/10/15 03:37:01;;;;;;;55.95;30.38;;;11.50;99.90;;;;;;5072413;28;20097;-84
2022/10/15 03:39:26;;;;;;;65.82;34.15;;;11.50;99.90;;;;;;5072168;28;20432;-82
2022/10/15 03:41:52;;;;;;;65.68;36.00;;;11.50;99.90;;;;;;5072333;28;20032;-80
2022/10/15 03:44:18;;;;;;;51.20;25.87;;;11.50;99.90;;;;;;5071883;28;20154;-81
2022/10/15 03:46:44;;;;;;;57.50;28.40;;;11.90;99.90;;;;;;5055365;28;20056;-81
2022/10/15 03:49:10;;;;;;;60.28;31.88;;;11.60;99.90;;;;;;5072445;28;20036;-81
2022/10/15 03:51:36;;;;;;;60.20;31.65;;;11.50;99.90;;;;;;5073239;28;20055;-82
2022/10/15 03:54:02;;;;;;;61.47;33.10;;;11.50;99.90;;;;;;5072002;28;20041;-81
2022/10/15 03:56:27;;;;;;;59.40;29.23;;;11.50;99.90;;;;;;5055161;28;20169;-83
2022/10/15 03:58:53;;;;;;;52.08;32.42;;;11.50;99.90;;;;;;5072903;28;20048;-82
2022/10/15 04:01:18;;;;;;;53.55;27.30;;;11.40;99.90;;;;;;5072417;28;20538;-84
2022/10/15 04:03:44;;;;;;;62.38;32.55;;;11.50;99.90;;;;;;5073737;28;20045;-81
2022/10/15 04:06:10;;;;;;;53.78;28.20;;;11.50;99.90;;;;;;5072101;28;20037;-83
2022/10/15 04:08:36;;;;;;;48.15;28.40;;;11.50;99.90;;;;;;5072361;28;20127;-85
2022/10/15 04:11:01;;;;;;;54.35;30.70;;;11.40;99.90;;;;;;5073257;28;20130;-82
2022/10/15 04:13:28;;;;;;;52.65;26.10;;;11.50;99.90;;;;;;5055835;28;20052;-82
2022/10/15 04:15:54;;;;;;;63.75;33.00;;;11.60;99.90;;;;;;5072957;28;20053;-82
2022/10/15 04:18:21;;;;;;;48.28;24.67;;;11.40;99.90;;;;;;5071970;28;20407;-85
2022/10/15 04:20:50;;;;;;;46.90;26.58;;;11.40;99.90;;;;;;5071758;28;20051;-84
2022/10/15 04:23:16;;;;;;;49.90;28.65;;;11.50;99.90;;;;;;5076273;28;20036;-81
2022/10/15 04:25:42;;;;;;;53.38;28.13;;;11.40;99.90;;;;;;5076368;28;20074;-84
2022/10/15 04:28:08;;;;;;;51.10;30.95;;;11.70;99.90;;;;;;5075491;28;20041;-83
2022/10/15 04:30:34;;;;;;;52.10;28.77;;;11.40;99.90;;;;;;5076320;28;20126;-82
2022/10/15 04:32:59;;;;;;;51.85;28.48;;;11.40;99.90;;;;;;5076364;28;20127;-81
2022/10/15 04:35:25;;;;;;;49.45;29.48;;;11.40;99.90;;;;;;5058472;28;20468;-81
2022/10/15 04:37:51;;;;;;;53.70;30.80;;;11.40;99.90;;;;;;5058676;28;20041;-83
2022/10/15 04:40:17;;;;;;;55.08;30.58;;;11.40;99.90;;;;;;5076216;28;20044;-82
2022/10/15 04:42:43;;;;;;;44.95;25.98;;;11.40;99.90;;;;;;5074905;28;20407;-83
2022/10/15 04:45:09;;;;;;;50.15;28.17;;;11.50;99.90;;;;;;5074918;28;20053;-83
2022/10/15 04:47:34;;;;;;;42.08;26.25;;;11.30;99.90;;;;;;5058564;28;20048;-83
2022/10/15 04:50:00;;;;;;;42.80;26.25;;;11.40;99.90;;;;;;5075786;28;20041;-84
2022/10/15 04:52:25;;;;;;;45.33;24.75;;;11.30;99.90;;;;;;5076110;28;20049;-84
2022/10/15 04:54:51;;;;;;;49.80;26.27;;;11.30;99.90;;;;;;5074743;28;20519;-81
2022/10/15 04:57:17;;;;;;;46.50;25.38;;;11.20;99.90;;;;;;5058237;28;20047;-82
2022/10/15 04:59:43;;;;;;;52.88;30.85;;;11.20;99.90;;;;;;5075128;28;20523;-82
2022/10/15 05:02:09;;;;;;;39.85;23.40;;;11.40;99.90;;;;;;5075368;28;20055;-81
2022/10/15 05:04:35;;;;;;;44.67;27.20;;;11.10;99.90;;;;;;5074850;28;20047;-85
2022/10/15 05:07:00;;;;;;;35.35;21.92;;;11.10;99.90;;;;;;5075691;28;20468;-82
2022/10/15 05:09:26;;;;;;;64.22;32.85;;;11.00;99.90;;;;;;5074497;28;20052;-81
2022/10/15 05:11:52;;;;;;;48.38;27.20;;;11.00;99.90;;;;;;5074746;28;20045;-82
2022/10/15 05:14:17;;;;;;;49.28;28.33;;;11.00;99.90;;;;;;5075234;28;20178;-81
2022/10/15 05:16:43;;;;;;;44.67;24.23;;;10.90;99.90;;;;;;5074875;28;20043;-81
2022/10/15 05:19:10;;;;;;;47.63;26.92;;;10.90;99.90;;;;;;5075289;28;20056;-83
2022/10/15 05:21:36;;;;;;;53.60;31.17;;;11.50;99.90;;;;;;5074488;28;20041;-83
2022/10/15 05:24:04;;;;;;;48.03;26.15;;;10.80;99.90;;;;;;5075364;28;20042;-81
2022/10/15 05:26:31;;;;;;;44.72;24.20;;;10.80;99.90;;;;;;5075347;28;20434;-80
2022/10/15 05:28:57;;;;;;;42.85;27.17;;;10.80;99.90;;;;;;5074383;28;20052;-83
2022/10/15 05:31:25;;;;;;;45.97;26.05;;;10.80;99.90;;;;;;5074171;28;20051;-82
2022/10/15 05:33:52;;;;;;;50.38;28.13;;;10.80;99.90;;;;;;5074566;28;20047;-83
2022/10/15 05:36:20;;;;;;;53.63;27.25;;;10.70;99.90;;;;;;5075123;28;20088;-81
2022/10/15 05:38:58;;;;;;;45.25;25.08;;;10.70;99.90;;;;;;5074098;28;20109;-79
2022/10/15 05:41:25;;;;;;;68.90;32.30;;;10.70;99.90;;;;;;5075025;28;20041;-80
2022/10/15 05:43:52;;;;;;;61.70;32.60;;;10.70;99.90;;;;;;5074769;28;20059;-83
2022/10/15 05:46:18;;;;;;;51.58;28.60;;;10.70;99.90;;;;;;5073798;28;20048;-82
2022/10/15 05:48:55;;;;;;;49.97;27.27;;;10.70;99.90;;;;;;5073744;28;20059;-82
2022/10/15 05:51:21;;;;;;;71.13;31.98;;;10.70;99.90;;;;;;5073613;28;20275;-85
2022/10/15 05:53:50;;;;;;;72.78;30.17;;;10.60;99.90;;;;;;5074347;28;20047;-84
2022/10/15 05:56:16;;;;;;;61.08;30.38;;;10.70;99.90;;;;;;5073764;28;20136;-84
2022/10/15 05:58:41;;;;;;;66.07;34.07;;;10.70;99.90;;;;;;5073507;28;20055;-83
2022/10/15 06:01:09;;;;;;;50.58;27.00;;;10.70;99.90;;;;;;5073808;28;20400;-84
2022/10/15 06:03:36;;;;;;;82.25;34.90;;;10.70;99.90;;;;;;5073617;28;20523;-83
2022/10/15 06:06:01;;;;;;;61.10;30.23;;;10.80;99.90;;;;;;5074388;28;20060;-84
2022/10/15 06:08:30;;;;;;;70.35;34.42;;;10.80;99.90;;;;;;5074471;28;20045;-86
2022/10/15 06:11:00;;;;;;;59.83;28.95;;;11.10;99.90;;;;;;5056717;28;20515;-86
2022/10/15 06:13:25;;;;;;;79.85;32.70;;;10.90;99.90;;;;;;5073988;28;20066;-85
2022/10/15 06:15:51;;;;;;;64.88;33.22;;;10.90;99.90;;;;;;5077824;28;20431;-85
2022/10/15 06:18:17;;;;;;;82.47;34.88;;;11.40;99.90;;;;;;5056817;28;20045;-87
2022/10/15 06:20:42;;;;;;;60.80;30.95;;;10.90;99.90;;;;;;5073559;28;20132;-84
2022/10/15 06:23:09;;;;;;;70.30;30.80;;;10.90;99.90;;;;;;5073903;28;20048;-83
2022/10/15 06:25:35;;;;;;;67.88;29.88;;;10.90;99.90;;;;;;5073258;28;20047;-84
2022/10/15 06:28:02;;;;;;;78.80;36.95;;;10.90;99.90;;;;;;5073262;28;20135;-84
2022/10/15 06:30:28;;;;;;;71.10;33.92;;;11.00;99.90;;;;;;5056500;28;20044;-88
2022/10/15 06:32:53;;;;;;;79.07;36.47;;;11.00;99.90;;;;;;5073274;28;20468;-82
2022/10/15 06:35:21;;;;;;;83.22;36.15;;;11.00;99.90;;;;;;5072810;28;20041;-84
2022/10/15 06:37:47;;;;;;;72.80;32.60;;;11.00;99.90;;;;;;5073058;28;20127;-85
2022/10/15 06:40:13;;;;;;;83.80;35.00;;;11.10;99.90;;;;;;5073973;28;20123;-84
2022/10/15 06:42:39;;;;;;;90.70;40.77;;;11.10;99.90;;;;;;5056559;28;20071;-82
2022/10/15 06:45:06;;;;;;;74.15;33.47;;;11.10;99.90;;;;;;5073384;28;20067;-82
2022/10/15 06:47:32;;;;;;;86.93;36.85;;;11.20;99.90;;;;;;5072586;28;20051;-83
2022/10/15 06:49:59;;;;;;;92.37;38.23;;;11.20;99.90;;;;;;5073840;28;20048;-83
2022/10/15 06:52:24;;;;;;;81.10;34.72;;;11.30;99.90;;;;;;5073560;28;20044;-84
2022/10/15 06:54:50;;;;;;;73.13;35.35;;;11.30;99.90;;;;;;5072581;28;20039;-81
2022/10/15 06:57:16;;;;;;;61.10;31.65;;;11.40;99.90;;;;;;5073707;28;20052;-82
2022/10/15 06:59:42;;;;;;;69.38;33.53;;;11.50;99.90;;;;;;5073720;28;20468;-84
2022/10/15 07:02:12;;;;;;;71.68;33.85;;;11.50;99.90;;;;;;5072792;28;20094;-82
2022/10/15 07:04:38;;;;;;;74.40;36.10;;;12.20;99.90;;;;;;5072426;28;20036;-81
2022/10/15 07:07:04;;;;;;;80.65;38.80;;;11.50;99.90;;;;;;5072664;28;20443;-83
2022/10/15 07:09:30;;;;;;;68.88;32.22;;;11.60;99.90;;;;;;5072868;28;20048;-83
2022/10/15 07:11:55;;;;;;;76.70;35.88;;;11.90;99.90;;;;;;5056099;28;20119;-84
2022/10/15 07:14:21;;;;;;;62.53;35.10;;;11.50;99.90;;;;;;5072461;28;20048;-83
2022/10/15 07:16:46;;;;;;;63.22;31.98;;;11.80;99.90;;;;;;5063234;28;20047;-88
2022/10/15 07:19:12;;;;;;;70.07;36.38;;;11.90;99.90;;;;;;5060869;28;20105;-85
2022/10/15 07:21:38;;;;;;;70.57;34.75;;;11.70;99.90;;;;;;5073388;28;20047;-83
2022/10/15 07:24:04;;;;;;;64.20;33.92;;;11.70;99.90;;;;;;5056434;28;20496;-84
2022/10/15 07:26:29;;;;;;;59.80;30.45;;;11.70;99.90;;;;;;5056047;28;20045;-88
2022/10/15 07:28:56;;;;;;;75.47;42.58;;;11.70;99.90;;;;;;5072689;28;20037;-80
2022/10/15 07:31:22;;;;;;;68.33;31.83;;;11.80;99.90;;;;;;5073508;28;20127;-82
2022/10/15 07:33:47;;;;;;;66.57;33.50;;;11.80;99.90;;;;;;5072410;28;20140;-83
2022/10/15 07:36:13;;;;;;;72.30;35.50;;;11.70;99.90;;;;;;5072303;28;20044;-86
2022/10/15 07:38:39;;;;;;;58.85;32.00;;;11.90;99.90;;;;;;5055981;28;20041;-82
2022/10/15 07:41:06;;;;;;;57.78;35.30;;;12.90;99.90;;;;;;5072914;28;20086;-86
2022/10/15 07:43:33;;;;;;;60.03;34.13;;;12.10;99.90;;;;;;5073832;28;20128;-87
2022/10/15 07:45:59;;;;;;;70.70;36.72;;;12.20;99.90;;;;;;5055022;28;20095;-86
2022/10/15 07:48:24;;;;;;;64.05;37.20;;;12.00;99.90;;;;;;5073349;28;20076;-84
2022/10/15 07:51:02;;;;;;;62.88;35.65;;;12.30;99.90;;;;;;5073097;28;20545;-83
2022/10/15 07:53:29;;;;;;;60.78;36.20;;;12.40;99.90;;;;;;5073182;28;20048;-83
2022/10/15 07:56:01;;;;;;;53.47;29.90;;;12.50;99.90;;;;;;5073907;28;20044;-84
2022/10/15 07:58:29;;;;;;;56.67;33.20;;;12.40;99.90;;;;;;5077155;28;20049;-83
2022/10/15 08:00:57;;;;;;;52.47;33.55;;;12.40;99.90;;;;;;5076920;28;20481;-82
2022/10/15 08:03:23;;;;;;;59.05;33.72;;;12.50;99.90;;;;;;5075642;28;20044;-85
2022/10/15 08:05:52;;;;;;;60.55;38.92;;;12.60;99.90;;;;;;5075936;28;20071;-82
2022/10/15 08:08:20;;;;;;;58.08;32.78;;;12.70;99.90;;;;;;5075972;28;20443;-83
2022/10/15 08:10:46;;;;;;;57.45;35.35;;;12.80;99.90;;;;;;5059094;28;20048;-83
2022/10/15 08:13:12;;;;;;;62.60;41.35;;;12.90;99.90;;;;;;5076837;28;20055;-83
2022/10/15 08:15:39;;;;;;;61.40;39.92;;;13.00;99.90;;;;;;5072451;28;20090;-81
2022/10/15 08:18:05;;;;;;;57.00;34.55;;;13.10;99.90;;;;;;5074964;28;20040;-79
2022/10/15 08:20:30;;;;;;;59.42;37.63;;;13.20;99.90;;;;;;5074641;28;20040;-83
2022/10/15 08:22:56;;;;;;;57.08;40.03;;;13.20;99.90;;;;;;5073774;28;20494;-81
2022/10/15 08:25:25;;;;;;;63.92;41.25;;;13.20;99.90;;;;;;5076255;28;20396;-87
2022/10/15 08:27:52;;;;;;;63.22;42.47;;;13.30;99.90;;;;;;5079031;28;20055;-86
2022/10/15 08:30:18;;;;;;;;;;;13.60;99.90;;;;;;5076936;28;20127;-85
2022/10/15 08:32:44;;;;;;;56.80;36.70;;;13.30;99.90;;;;;;5058535;28;20453;-83
2022/10/15 08:35:09;;;;;;;56.50;39.75;;;13.50;99.90;;;;;;5058830;28;20151;-84
2022/10/15 08:37:35;;;;;;;55.60;40.20;;;13.50;99.90;;;;;;5075186;28;20040;-85
2022/10/15 08:40:02;;;;;;;55.97;41.40;;;13.60;99.90;;;;;;5058217;28;20053;-83
2022/10/15 08:42:40;;;;;;;53.63;36.17;;;13.70;99.90;;;;;;5058697;28;20098;-86
2022/10/15 08:45:22;;;;;;;46.78;34.22;;;13.80;99.90;;;;;;5074726;28;20058;-84
2022/10/15 08:47:58;;;;;;;51.10;37.33;;;13.80;99.90;;;;;;5074814;28;20040;-83
2022/10/15 08:50:47;;;;;;;46.03;35.08;;;14.00;99.90;;;;;;5075658;28;20049;-81
2022/10/15 08:53:18;;;;;;;43.15;33.28;;;14.00;99.90;;;;;;5074777;28;20052;-79
2022/10/15 08:55:49;;;;;;;45.40;33.15;;;14.00;99.90;;;;;;5058097;28;20098;-79
2022/10/15 08:58:20;;;;;;;43.80;31.70;;;14.00;99.90;;;;;;5075063;28;20044;-79
2022/10/15 09:00:50;;;;;;;47.10;35.08;;;14.00;99.90;;;;;;5075594;28;20044;-84
2022/10/15 09:03:38;;;;;;;47.95;33.33;;;14.00;99.90;;;;;;5075654;28;20051;-86
2022/10/15 09:06:27;;;;;;;43.92;32.10;;;13.90;99.90;;;;;;5061211;28;20488;-85
2022/10/15 09:09:24;;;;;;;44.58;32.72;;;13.90;99.90;;;;;;5068366;28;20115;-87
2022/10/15 09:12:16;;;;;;;46.70;33.25;;;13.80;99.90;;;;;;5056841;28;20049;-87
2022/10/15 09:14:45;;;;;;;43.38;29.05;;;13.70;99.90;;;;;;5048091;28;20068;-86
2022/10/15 09:17:20;;;;;;;47.58;31.95;;;13.80;99.90;;;;;;5074263;28;20041;-83
2022/10/15 09:19:50;;;;;;;49.78;32.13;;;13.50;99.90;;;;;;5076076;28;20090;-84
2022/10/15 09:22:21;;;;;;;49.30;33.67;;;13.30;99.90;;;;;;5057548;28;20052;-84
2022/10/15 09:24:47;;;;;;;49.47;32.53;;;14.00;99.90;;;;;;5057303;28;20049;-84
2022/10/15 09:27:30;;;;;;;52.50;33.90;;;13.30;99.90;;;;;;5057339;28;20047;-81
2022/10/15 09:30:20;;;;;;;47.20;31.67;;;13.30;99.90;;;;;;5075052;28;20492;-81
2022/10/15 09:33:12;;;;;;;48.65;30.52;;;13.30;99.90;;;;;;5057491;28;20048;-85
2022/10/15 09:35:40;;;;;;;52.45;31.77;;;13.20;99.90;;;;;;5057838;28;20040;-83
2022/10/15 09:38:19;;;;;;;60.30;37.58;;;13.20;99.90;;;;;;5074052;28;20083;-83
2022/10/15 09:41:06;;;;;;;60.22;35.92;;;13.20;99.90;;;;;;5074898;28;20056;-84
2022/10/15 09:43:36;;;;;;;45.65;28.52;;;13.10;99.90;;;;;;5073863;28;20048;-82
2022/10/15 09:46:02;;;;;;;46.45;29.55;;;13.10;99.90;;;;;;5073547;28;20055;-83
2022/10/15 09:48:32;;;;;;;49.30;31.98;;;13.10;99.90;;;;;;5058036;28;20415;-84
2022/10/15 09:51:03;;;;;;;50.00;29.45;;;13.10;99.90;;;;;;5073725;28;20044;-83
2022/10/15 09:53:47;;;;;;;49.65;33.35;;;13.20;99.90;;;;;;5064725;28;20401;-82
2022/10/15 09:56:19;;;;;;;49.92;33.28;;;13.20;99.90;;;;;;5054113;28;20392;-83
2022/10/15 09:58:52;;;;;;;48.17;29.40;;;13.20;99.90;;;;;;5053679;28;20051;-82
2022/10/15 10:01:29;;;;;;;46.33;31.17;;;13.20;99.90;;;;;;5054417;28;20448;-80
2022/10/15 10:04:20;;;;;;;54.80;26.98;;;13.30;99.90;;;;;;5054749;28;20087;-84
2022/10/15 10:06:50;;;;;;;45.70;30.83;;;13.30;99.90;;;;;;5036962;28;20051;-84
2022/10/15 10:09:22;;;;;;;39.42;27.27;;;13.30;99.90;;;;;;5053867;28;20045;-82
2022/10/15 10:11:54;;;;;;;42.47;29.33;;;13.40;99.90;;;;;;5052877;28;20044;-83
2022/10/15 10:14:26;;;;;;;35.88;25.77;;;13.30;99.90;;;;;;5054139;28;20095;-83
2022/10/15 10:17:15;;;;;;;38.08;26.98;;;14.10;99.90;;;;;;5054126;28;20045;-82
2022/10/15 10:19:42;;;;;;;40.15;28.15;;;13.50;99.90;;;;;;5053384;28;20052;-83
2022/10/15 10:22:18;;;;;;;37.85;27.08;;;13.60;99.90;;;;;;5052999;28;20056;-84
2022/10/15 10:24:45;;;;;;;32.10;26.05;;;13.70;99.90;;;;;;5053016;28;20037;-82
2022/10/15 10:27:18;;;;;;;;;;;14.20;99.90;;;;;;5054502;28;20542;-82
2022/10/15 10:29:51;;;;;;;36.28;24.52;;;13.90;99.90;;;;;;5054777;28;19947;-84
2022/10/15 10:32:20;;;;;;;33.03;26.02;;;14.20;99.90;;;;;;5054182;28;20452;-87
2022/10/15 10:34:46;;;;;;;34.70;23.70;;;14.00;99.90;;;;;;5063905;28;20048;-83
2022/10/15 10:37:12;;;;;;;32.70;25.03;;;14.10;99.90;;;;;;5052551;28;20044;-83
2022/10/15 10:39:38;;;;;;;30.67;22.45;;;14.10;99.90;;;;;;5036324;28;20170;-84
2022/10/15 10:42:22;;;;;;;26.58;21.90;;;14.00;99.90;;;;;;5035928;28;20400;-85
2022/10/15 10:44:47;;;;;;;28.15;22.10;;;14.20;99.90;;;;;;5052304;28;20122;-84
2022/10/15 10:47:22;;;;;;;25.87;19.97;;;14.50;99.90;;;;;;5052716;28;20052;-84
2022/10/15 10:49:56;;;;;;;25.75;20.45;;;14.30;99.90;;;;;;5053968;28;20397;-87
2022/10/15 10:52:25;;;;;;;23.98;19.75;;;14.30;99.90;;;;;;5035973;28;20049;-82
2022/10/15 10:55:15;;;;;;;25.80;19.83;;;14.50;99.90;;;;;;5053585;28;20047;-81
2022/10/15 10:57:56;;;;;;;24.15;19.42;;;14.70;99.90;;;;;;5053243;28;20068;-86
2022/10/15 11:00:25;;;;;;;22.90;18.80;;;14.70;99.90;;;;;;5052754;28;20088;-87
2022/10/15 11:02:51;;;;;;;23.23;18.58;;;14.80;99.90;;;;;;5035825;28;20098;-86
2022/10/15 11:05:25;;;;;;;23.27;18.30;;;14.90;99.90;;;;;;5036137;28;20143;-84
2022/10/15 11:08:20;;;;;;;20.05;17.13;;;15.00;99.90;;;;;;5052366;28;20037;-87
2022/10/15 11:11:05;;;;;;;19.08;15.75;;;15.00;99.90;;;;;;5052727;28;20041;-85
2022/10/15 11:13:51;;;;;;;18.65;16.15;;;15.00;99.90;;;;;;5035331;28;20401;-86
2022/10/15 11:16:25;;;;;;;21.63;17.20;;;14.90;99.90;;;;;;5052748;28;20132;-87
2022/10/15 11:19:08;;;;;;;19.38;16.25;;;14.80;99.90;;;;;;5036630;28;20078;-86
2022/10/15 11:21:48;;;;;;;18.05;15.60;;;14.90;99.90;;;;;;5053651;28;20508;-82
2022/10/15 11:24:24;;;;;;;18.73;14.18;;;14.80;99.90;;;;;;5052597;28;20051;-82
2022/10/15 11:27:14;;;;;;;16.77;14.23;;;14.80;99.90;;;;;;5053184;28;20048;-81
2022/10/15 11:29:48;;;;;;;18.00;15.00;;;14.90;99.90;;;;;;5052906;28;20045;-81
2022/10/15 11:32:23;;;;;;;19.98;15.57;;;14.80;99.90;;;;;;5057181;28;20087;-81
2022/10/15 11:35:07;;;;;;;16.80;14.38;;;14.80;99.90;;;;;;5057066;28;20041;-82
2022/10/15 11:38:10;;;;;;;18.02;14.65;;;14.90;99.90;;;;;;5056225;28;20052;-83
2022/10/15 11:40:45;;;;;;;17.17;14.77;;;14.80;99.90;;;;;;5023725;28;20056;-82
2022/10/15 11:43:24;;;;;;;15.82;14.00;;;14.90;99.90;;;;;;5056729;28;20045;-84
2022/10/15 11:46:18;;;;;;;16.38;13.98;;;14.80;99.90;;;;;;5057396;28;20409;-81
2022/10/15 11:49:18;;;;;;;15.65;13.15;;;15.00;99.90;;;;;;5056279;28;20084;-81
2022/10/15 11:51:59;;;;;;;16.83;13.73;;;15.00;99.90;;;;;;5056340;28;20098;-84
2022/10/15 11:54:53;;;;;;;13.38;11.98;;;15.00;99.90;;;;;;5039515;28;20495;-84
2022/10/15 11:57:20;;;;;;;16.75;12.25;;;15.00;99.90;;;;;;5057039;28;20049;-83
2022/10/15 11:59:56;;;;;;;13.55;10.98;;;14.90;99.90;;;;;;5056724;28;20041;-81
2022/10/15 12:02:36;;;;;;;15.02;12.43;;;15.80;99.90;;;;;;5057106;28;20040;-82
2022/10/15 12:05:07;;;;;;;14.27;11.85;;;15.20;99.90;;;;;;5055503;28;20049;-82
2022/10/15 12:07:40;;;;;;;15.32;12.25;;;15.30;99.90;;;;;;5056748;28;20087;-83
2022/10/15 12:10:12;;;;;;;15.25;12.13;;;15.40;99.90;;;;;;5057346;28;20044;-82
2022/10/15 12:12:46;;;;;;;13.98;11.65;;;15.30;99.90;;;;;;5055445;28;20386;-84
2022/10/15 12:15:37;;;;;;;15.10;12.32;;;15.50;99.90;;;;;;5038810;28;20041;-84
2022/10/15 12:18:18;;;;;;;15.85;12.77;;;15.40;99.90;;;;;;5055419;28;20041;-81
2022/10/15 12:20:44;;;;;;;17.25;11.98;;;15.40;99.90;;;;;;5056885;28;20080;-83
2022/10/15 12:23:44;;;;;;;16.60;12.55;;;15.30;99.90;;;;;;5056271;28;20392;-83
2022/10/15 12:26:27;;;;;;;15.25;12.45;;;15.90;99.90;;;;;;5055254;28;20064;-84
2022/10/15 12:28:56;;;;;;;17.08;14.10;;;15.30;99.90;;;;;;5055887;28;20052;-82
2022/10/15 12:31:23;;;;;;;16.02;12.95;;;15.30;99.90;;;;;;5055360;28;20041;-85
2022/10/15 12:33:54;;;;;;;17.60;13.88;;;14.90;99.90;;;;;;5056170;28;20079;-81
2022/10/15 12:36:28;;;;;;;17.02;14.00;;;15.00;99.90;;;;;;5054921;28;20041;-83
2022/10/15 12:39:01;;;;;;;20.17;15.20;;;15.20;99.90;;;;;;5056290;28;20465;-83
2022/10/15 12:41:40;;;;;;;20.77;15.40;;;15.10;99.90;;;;;;5055059;28;20073;-80
2022/10/15 12:44:18;;;;;;;20.33;16.20;;;15.10;99.90;;;;;;5054731;28;20045;-82
2022/10/15 12:46:44;;;;;;;20.55;15.73;;;15.10;99.90;;;;;;5054784;28;20114;-83